メインページ
METAR-TAF:

METAR-TAF

空港 :

ディオリ・アマニ国際空港

ニアメ, ニジェール

緯度: 13-29N, 経度: 002-10E, 海抜: 223m

現時点の気象観測

当レポートは32分前の06:00(UTC)に作成
西/南西の風 7kt
気温 30°C
湿度 13%
気圧 1008 hPa
視程: 8000m

METAR: DRRN 040600Z 24007KT 8000 NSC 30/M01 Q1008 NOSIG

時間: 07:32 (06:32 UTC)

予報

当レポートは1時間32分前の05:00(UTC)に作成
予報は04日の 06時(UTC)から 05日の 12時(UTC)まで有効
西の風 10kt
視程10km以上
1,500メートル以下は雲なし、積乱雲なし

TAF: DRRN 040500Z 0406/0512 26010KT CAVOK

4,000以上の空港の気象観測と天気予報(METAR報とTAF報)

利用可能な観測所は地図上に黄色い丸と赤い丸で示す。

丸の上にカーソルを重ねると観測所名を参照できる。

次にクリックすると気象観測と天気予報を参照できる。

マップの切り替え:黒色「×」印の緑ボタンをクリックして拡大、「-」印の緑ボタンをクリックして縮小、緑色の三角印をクリックして隣りの地図に切り替え


METAR-TAF: